Time;durP1;ratioP1;P1;durP2;ratioP2;P2;SDS_P1;SDS_P2;PMS_P1;PMS_P2;Temp;Humidity;BMP_temperature;BMP_pressure;BME280_temperature;BME280_humidity;BME280_pressure;Samples;Min_cycle;Max_cycle;Signal;HPM_P1;HPM_P2
2021/04/09 00:00:49;;;;;;;0.10;0.10;;;9.10;75.80;;;;;;5012844;28;20537;-92
2021/04/09 00:03:15;;;;;;;0.38;0.38;;;9.20;76.00;;;;;;5012999;28;20477;-94
2021/04/09 00:05:41;;;;;;;0.20;0.20;;;9.10;77.10;;;;;;5012990;28;20552;-92
2021/04/09 00:12:09;;;;;;;0.10;0.10;;;9.20;77.20;;;;;;5017941;28;20509;-93
2021/04/09 00:14:35;;;;;;;;;;;9.00;77.70;;;;;;5017697;28;20084;-92
2021/04/09 00:17:00;;;;;;;2.80;1.70;;;9.10;77.30;;;;;;5016904;28;19913;-91
2021/04/09 00:19:28;;;;;;;0.20;0.20;;;9.00;78.30;;;;;;5016381;28;20037;-92
2021/04/09 00:21:54;;;;;;;0.20;0.20;;;8.90;78.80;;;;;;5016941;28;20033;-92
2021/04/09 00:24:20;;;;;;;0.00;0.00;;;9.00;78.80;;;;;;5017128;28;20075;-92
2021/04/09 00:26:46;;;;;;;0.10;0.10;;;9.10;79.40;;;;;;5016965;28;20629;-94
2021/04/09 00:29:12;;;;;;;0.10;0.10;;;8.90;79.30;;;;;;5016521;28;20058;-93
2021/04/09 00:31:39;;;;;;;0.10;0.10;;;8.70;80.20;;;;;;5016294;28;20038;-91
2021/04/09 00:34:06;;;;;;;2.05;0.80;;;8.80;80.00;;;;;;5016611;28;20026;-93
2021/04/09 00:36:35;;;;;;;0.10;0.10;;;8.80;80.90;;;;;;5016285;28;20037;-92
2021/04/09 00:39:03;;;;;;;0.10;0.10;;;8.70;81.00;;;;;;5015860;28;20556;-93
2021/04/09 00:41:29;;;;;;;0.40;0.40;;;8.70;81.10;;;;;;5016112;28;20030;-92
2021/04/09 00:43:55;;;;;;;0.25;0.25;;;8.60;81.00;;;;;;5016231;28;20026;-94
2021/04/09 00:46:22;;;;;;;0.20;0.20;;;8.70;81.30;;;;;;5016482;28;20497;-92
2021/04/09 00:48:47;;;;;;;0.20;0.20;;;8.70;81.60;;;;;;5016165;28;20026;-94
2021/04/09 00:51:14;;;;;;;0.10;0.10;;;8.70;81.90;;;;;;5016408;28;20375;-94
2021/04/09 00:53:42;;;;;;;0.93;0.88;;;8.70;81.60;;;;;;5019223;28;20029;-93
2021/04/09 00:56:08;;;;;;;0.10;0.10;;;8.70;82.50;;;;;;5021212;28;20040;-94
2021/04/09 00:58:35;;;;;;;0.10;0.10;;;8.70;82.40;;;;;;5022761;28;20100;-94
2021/04/09 01:01:02;;;;;;;0.52;0.52;;;8.60;83.30;;;;;;5022675;28;20485;-94
2021/04/09 01:03:28;;;;;;;0.10;0.10;;;8.60;82.60;;;;;;5022318;28;20494;-93
2021/04/09 01:05:54;;;;;;;0.30;0.30;;;8.60;82.60;;;;;;5021434;28;20114;-94
2021/04/09 01:08:20;;;;;;;0.05;0.05;;;8.30;83.80;;;;;;5018820;28;20030;-94
2021/04/09 01:10:46;;;;;;;0.57;0.57;;;8.40;83.40;;;;;;5017385;28;20084;-94
2021/04/09 01:13:12;;;;;;;0.20;0.20;;;8.40;84.30;;;;;;5020727;28;20629;-94
2021/04/09 01:15:38;;;;;;;0.25;0.25;;;8.40;83.80;;;;;;5017396;28;20056;-94
2021/04/09 01:18:34;;;;;;;3.55;0.85;;;8.40;84.90;;;;;;5016240;28;20018;-93
2021/04/09 01:21:16;;;;;;;0.10;0.10;;;8.30;86.00;;;;;;5032211;28;20034;-93
2021/04/09 01:24:00;;;;;;;1.27;0.68;;;8.40;84.90;;;;;;5020901;28;20438;-94
2021/04/09 01:26:59;;;;;;;0.60;0.40;;;8.30;85.80;;;;;;5032208;28;20030;-93
2021/04/09 01:29:34;;;;;;;0.25;0.25;;;8.30;86.30;;;;;;5015676;28;20062;-92
2021/04/09 01:32:06;;;;;;;0.10;0.10;;;8.30;86.10;;;;;;5031594;28;20493;-91
2021/04/09 01:34:36;;;;;;;0.10;0.10;;;8.20;86.10;;;;;;5014862;28;20030;-92
2021/04/09 01:37:16;;;;;;;0.10;0.10;;;8.20;86.50;;;;;;5015252;28;20022;-92
2021/04/09 01:40:00;;;;;;;0.10;0.10;;;8.10;87.00;;;;;;5014808;28;20022;-92
2021/04/09 01:42:27;;;;;;;0.10;0.10;;;8.10;88.00;;;;;;5014758;28;20571;-92
2021/04/09 01:44:54;;;;;;;;;;;8.00;88.00;;;;;;5015723;28;20034;-94
2021/04/09 01:47:28;;;;;;;;;;;8.20;87.90;;;;;;5016267;28;19968;-95
2021/04/09 01:49:57;;;;;;;0.10;0.10;;;7.90;88.50;;;;;;5016166;28;19905;-94
2021/04/09 01:52:25;;;;;;;0.10;0.10;;;8.00;88.80;;;;;;5015250;28;20033;-94
2021/04/09 01:54:53;;;;;;;0.70;0.70;;;8.00;88.30;;;;;;5016978;28;20037;-95
2021/04/09 01:57:22;;;;;;;0.90;0.47;;;8.00;88.60;;;;;;5022981;28;20017;-95
2021/04/09 01:59:50;;;;;;;0.20;0.20;;;8.10;87.90;;;;;;5021301;28;20096;-93
2021/04/09 02:02:20;;;;;;;0.10;0.10;;;8.10;88.30;;;;;;5015099;28;20176;-95
2021/04/09 02:04:48;;;;;;;1.00;0.57;;;8.00;89.90;;;;;;5016619;28;20034;-92
2021/04/09 02:07:21;;;;;;;0.20;0.20;;;7.80;89.80;;;;;;5013744;28;20026;-92
2021/04/09 02:09:48;;;;;;;0.15;0.15;;;7.80;90.10;;;;;;5014032;28;20026;-93
2021/04/09 02:12:16;;;;;;;0.20;0.20;;;8.00;89.10;;;;;;5014271;28;20029;-93
2021/04/09 02:14:43;;;;;;;0.38;0.38;;;8.10;89.00;;;;;;5014681;28;20023;-92
2021/04/09 02:17:10;;;;;;;;;;;8.10;89.30;;;;;;5009328;28;20069;-92
2021/04/09 02:19:38;;;;;;;0.10;0.10;;;8.20;89.00;;;;;;4998556;28;19921;-95
2021/04/09 02:22:05;;;;;;;2.10;1.20;;;8.20;89.80;;;;;;5001868;28;20478;-95
2021/04/09 02:24:31;;;;;;;0.55;0.55;;;8.10;89.50;;;;;;4994990;28;20398;-95
2021/04/09 02:27:19;;;;;;;0.10;0.10;;;8.20;90.00;;;;;;4999651;28;20034;-96
2021/04/09 02:29:45;;;;;;;0.10;0.10;;;8.00;90.00;;;;;;5000683;28;20459;-94
2021/04/09 02:32:11;;;;;;;0.17;0.17;;;7.80;90.20;;;;;;5005353;28;20050;-95
2021/04/09 02:38:03;;;;;;;0.10;0.10;;;7.80;90.70;;;;;;5008527;28;20105;-96
2021/04/09 02:40:35;;;;;;;0.10;0.10;;;7.70;90.60;;;;;;5008143;28;20018;-95
2021/04/09 02:43:01;;;;;;;0.10;0.10;;;7.80;90.60;;;;;;5007883;28;20030;-95
2021/04/09 02:45:28;;;;;;;2.70;1.00;;;7.80;90.60;;;;;;5010448;28;20046;-95
2021/04/09 02:47:58;;;;;;;0.10;0.10;;;7.80;90.40;;;;;;5008694;28;20027;-95
2021/04/09 02:50:36;;;;;;;0.10;0.10;;;7.80;91.10;;;;;;5001275;28;20026;-95
2021/04/09 02:53:15;;;;;;;0.10;0.10;;;7.90;90.80;;;;;;4998811;28;20053;-94
2021/04/09 02:55:44;;;;;;;0.75;0.55;;;7.80;91.20;;;;;;4999900;28;20026;-95
2021/04/09 02:58:13;;;;;;;0.08;0.08;;;7.70;91.10;;;;;;4998671;28;20031;-95
2021/04/09 03:00:44;;;;;;;0.20;0.20;;;7.60;91.40;;;;;;4997486;28;20022;-95
2021/04/09 03:03:11;;;;;;;0.50;0.50;;;7.60;91.40;;;;;;4997350;28;20406;-96
2021/04/09 03:05:39;;;;;;;0.35;0.35;;;7.80;91.50;;;;;;5000812;28;20033;-95
2021/04/09 03:08:06;;;;;;;0.10;0.10;;;7.80;91.30;;;;;;5004083;28;20036;-95
2021/04/09 03:10:32;;;;;;;0.10;0.10;;;7.90;91.20;;;;;;5004050;28;20034;-93
2021/04/09 03:12:58;;;;;;;0.20;0.20;;;7.70;91.60;;;;;;4994444;28;20458;-94
2021/04/09 03:15:27;;;;;;;0.10;0.10;;;7.90;91.20;;;;;;4994746;28;20028;-95
2021/04/09 03:18:02;;;;;;;0.30;0.30;;;7.80;91.80;;;;;;4994302;28;20081;-94
2021/04/09 03:20:28;;;;;;;0.10;0.10;;;7.60;92.10;;;;;;4992224;28;20053;-95
2021/04/09 03:22:54;;;;;;;0.20;0.20;;;7.80;91.90;;;;;;4994175;28;20022;-96
2021/04/09 03:25:20;;;;;;;0.40;0.35;;;8.10;91.30;;;;;;4994414;28;20027;-94
2021/04/09 03:27:46;;;;;;;0.20;0.20;;;8.00;91.50;;;;;;4993886;28;20030;-94
2021/04/09 03:33:34;;;;;;;0.20;0.20;;;7.80;92.20;;;;;;5007153;28;20057;-95
2021/04/09 03:36:00;;;;;;;0.10;0.10;;;8.00;91.30;;;;;;5005470;28;20518;-95
2021/04/09 03:38:30;;;;;;;0.40;0.40;;;8.00;91.60;;;;;;5009008;28;20023;-95
2021/04/09 03:40:57;;;;;;;0.30;0.30;;;7.80;92.10;;;;;;5004172;28;20069;-94
2021/04/09 03:43:23;;;;;;;0.10;0.10;;;8.10;91.90;;;;;;4993982;28;20054;-94
2021/04/09 03:45:48;;;;;;;0.10;0.10;;;7.80;91.90;;;;;;4994558;28;20081;-95
2021/04/09 03:48:15;;;;;;;0.10;0.10;;;7.80;92.60;;;;;;5006817;28;20030;-95
2021/04/09 03:50:41;;;;;;;1.85;0.60;;;8.00;92.30;;;;;;5007237;28;20066;-95
2021/04/09 03:53:06;;;;;;;0.15;0.15;;;7.60;92.90;;;;;;4995745;28;20483;-93
2021/04/09 03:55:33;;;;;;;0.10;0.10;;;7.70;92.60;;;;;;4993828;28;20149;-92
2021/04/09 03:57:58;;;;;;;0.20;0.20;;;7.90;92.50;;;;;;4995910;28;20038;-95
2021/04/09 04:00:24;;;;;;;0.20;0.20;;;7.70;92.70;;;;;;5001640;28;20077;-93
2021/04/09 04:02:51;;;;;;;0.50;0.50;;;7.70;93.00;;;;;;4993062;28;20030;-92
2021/04/09 04:05:18;;;;;;;0.10;0.10;;;7.70;92.90;;;;;;4993596;28;20114;-95
2021/04/09 04:07:44;;;;;;;0.10;0.10;;;7.70;93.50;;;;;;5000323;28;20026;-95
2021/04/09 04:10:11;;;;;;;0.10;0.10;;;7.70;93.10;;;;;;4993825;28;20117;-91
2021/04/09 04:12:37;;;;;;;0.13;0.13;;;7.60;94.20;;;;;;5027741;28;20034;-92
2021/04/09 04:15:04;;;;;;;0.20;0.20;;;7.50;93.40;;;;;;5007475;28;20076;-90
2021/04/09 04:17:29;;;;;;;;;;;7.30;94.00;;;;;;5008638;28;20026;-93
2021/04/09 04:19:55;;;;;;;0.10;0.10;;;7.10;94.20;;;;;;4994574;28;19913;-93
2021/04/09 04:22:21;;;;;;;0.10;0.10;;;7.30;94.20;;;;;;4991536;28;20557;-93
2021/04/09 04:24:47;;;;;;;0.15;0.15;;;7.50;94.00;;;;;;4997607;28;20122;-89
2021/04/09 04:27:13;;;;;;;3.00;1.65;;;7.60;93.90;;;;;;5008396;28;20080;-89
2021/04/09 04:29:39;;;;;;;0.10;0.10;;;7.80;93.80;;;;;;5007791;28;20022;-89
2021/04/09 04:32:05;;;;;;;0.10;0.10;;;7.90;93.50;;;;;;4997429;28;20125;-88
2021/04/09 04:34:31;;;;;;;0.13;0.13;;;7.80;93.90;;;;;;5007852;28;20033;-89
2021/04/09 04:36:56;;;;;;;0.10;0.10;;;7.80;93.80;;;;;;5006976;28;21155;-89
2021/04/09 04:39:22;;;;;;;0.20;0.20;;;7.90;93.90;;;;;;5022484;28;20121;-89
2021/04/09 04:41:48;;;;;;;0.80;0.80;;;8.10;93.70;;;;;;4990110;28;20053;-89
2021/04/09 04:44:14;;;;;;;0.45;0.20;;;7.80;94.10;;;;;;5008944;28;20060;-90
2021/04/09 04:46:40;;;;;;;0.10;0.10;;;7.90;94.50;;;;;;5011123;28;20075;-90
2021/04/09 04:49:06;;;;;;;0.90;0.90;;;7.90;94.00;;;;;;4999443;28;20018;-90
2021/04/09 04:51:33;;;;;;;0.13;0.13;;;8.10;94.30;;;;;;4995973;28;20029;-90
2021/04/09 04:53:59;;;;;;;0.30;0.30;;;7.70;94.60;;;;;;5012958;28;20029;-90
2021/04/09 04:56:25;;;;;;;0.30;0.30;;;7.80;94.90;;;;;;5006016;28;20025;-86
2021/04/09 04:58:51;;;;;;;0.10;0.10;;;7.80;94.60;;;;;;5012824;28;20026;-91
2021/04/09 05:01:16;;;;;;;0.10;0.10;;;8.00;94.90;;;;;;5011844;28;20034;-89
2021/04/09 05:03:42;;;;;;;0.13;0.13;;;7.90;94.40;;;;;;5011195;28;20037;-89
2021/04/09 05:06:08;;;;;;;0.10;0.10;;;8.00;94.80;;;;;;5013280;28;20034;-89
2021/04/09 05:08:34;;;;;;;0.10;0.10;;;8.00;94.50;;;;;;5011965;28;20113;-90
2021/04/09 05:11:00;;;;;;;0.20;0.20;;;8.20;94.60;;;;;;5012123;28;20400;-90
2021/04/09 05:13:26;;;;;;;0.88;0.75;;;8.00;94.60;;;;;;5013373;28;20057;-89
2021/04/09 05:15:51;;;;;;;3.42;1.58;;;8.20;94.60;;;;;;5011490;28;20044;-91
2021/04/09 05:18:17;;;;;;;0.10;0.10;;;8.00;94.90;;;;;;5011577;28;20516;-89
2021/04/09 05:20:43;;;;;;;0.10;0.10;;;8.10;95.20;;;;;;5013105;28;20484;-89
2021/04/09 05:23:09;;;;;;;0.10;0.10;;;8.30;94.60;;;;;;5013906;28;20064;-91
2021/04/09 05:25:35;;;;;;;2.38;0.95;;;8.20;95.00;;;;;;5015003;28;20025;-93
2021/04/09 05:28:00;;;;;;;0.10;0.10;;;8.30;95.10;;;;;;5015496;28;20034;-95
2021/04/09 05:30:26;;;;;;;0.10;0.10;;;8.40;94.90;;;;;;5021906;28;20036;-95
2021/04/09 05:32:53;;;;;;;0.10;0.10;;;8.60;95.20;;;;;;5021536;28;20116;-94
2021/04/09 05:35:21;;;;;;;0.10;0.10;;;8.80;95.10;;;;;;5018427;28;20478;-94
2021/04/09 05:37:47;;;;;;;0.10;0.10;;;9.20;94.50;;;;;;5016247;28;20034;-94
2021/04/09 05:40:14;;;;;;;0.10;0.10;;;9.50;94.70;;;;;;5016159;28;20032;-94
2021/04/09 05:42:40;;;;;;;0.20;0.20;;;9.70;94.10;;;;;;5015278;28;20018;-91
2021/04/09 05:45:06;;;;;;;0.75;0.75;;;10.10;93.50;;;;;;5012632;28;20033;-93
2021/04/09 05:47:32;;;;;;;0.05;0.05;;;10.30;93.40;;;;;;5010680;28;20019;-91
2021/04/09 05:50:00;;;;;;;0.25;0.25;;;10.30;93.60;;;;;;5012239;28;20030;-94
2021/04/09 05:52:25;;;;;;;0.00;0.00;;;10.50;93.30;;;;;;5015756;28;20026;-92
2021/04/09 05:54:51;;;;;;;0.10;0.10;;;10.60;92.80;;;;;;5012096;28;20037;-94
2021/04/09 05:57:17;;;;;;;0.25;0.25;;;11.00;92.10;;;;;;5007112;28;20516;-92
2021/04/09 05:59:43;;;;;;;0.17;0.17;;;11.00;92.20;;;;;;5013660;28;20022;-91
2021/04/09 06:02:09;;;;;;;0.13;0.13;;;11.30;91.60;;;;;;5012796;28;20556;-92
2021/04/09 06:04:34;;;;;;;0.20;0.20;;;11.70;91.00;;;;;;5008105;28;20060;-90
2021/04/09 06:07:00;;;;;;;0.00;0.00;;;11.40;91.40;;;;;;5004004;28;20979;-88
2021/04/09 06:09:26;;;;;;;0.10;0.10;;;11.10;91.40;;;;;;4997866;28;20441;-87
2021/04/09 06:11:56;;;;;;;0.00;0.00;;;10.60;92.00;;;;;;4994914;28;20056;-88
2021/04/09 06:14:21;;;;;;;1.10;0.90;;;10.30;92.10;;;;;;5003518;28;20045;-87
2021/04/09 06:16:47;;;;;;;0.05;0.05;;;10.40;92.20;;;;;;5011538;28;20013;-86
2021/04/09 06:19:13;;;;;;;0.00;0.00;;;10.70;91.80;;;;;;5000967;28;20053;-87
2021/04/09 06:21:41;;;;;;;0.00;0.00;;;11.00;91.80;;;;;;5004353;28;20085;-89
2021/04/09 06:24:08;;;;;;;0.00;0.00;;;11.60;91.30;;;;;;5017810;28;20561;-87
2021/04/09 06:26:34;;;;;;;0.10;0.10;;;12.50;90.50;;;;;;5004226;28;20433;-87
2021/04/09 06:29:00;;;;;;;0.00;0.00;;;13.00;90.00;;;;;;5003592;28;20034;-87
2021/04/09 06:31:26;;;;;;;0.08;0.08;;;13.20;88.30;;;;;;5000818;28;20042;-86
2021/04/09 06:33:53;;;;;;;0.20;0.20;;;13.90;87.50;;;;;;5001892;28;20026;-88
2021/04/09 06:36:19;;;;;;;2.00;0.73;;;13.90;86.10;;;;;;4999067;28;20030;-83
2021/04/09 06:38:45;;;;;;;0.63;0.63;;;13.70;86.10;;;;;;5020174;28;20119;-84
2021/04/09 06:41:11;;;;;;;0.10;0.10;;;13.60;85.60;;;;;;5001743;28;20518;-86
2021/04/09 06:43:41;;;;;;;0.00;0.00;;;13.90;85.90;;;;;;5005801;28;20105;-85
2021/04/09 06:46:06;;;;;;;0.00;0.00;;;14.20;83.60;;;;;;5014332;28;20030;-85
2021/04/09 06:48:33;;;;;;;1.10;1.00;;;14.10;83.90;;;;;;5003333;28;20061;-88
2021/04/09 06:51:00;;;;;;;0.00;0.00;;;13.90;83.10;;;;;;5000949;28;20036;-90
2021/04/09 06:53:25;;;;;;;;;;;14.60;83.70;;;;;;5002282;28;20030;-88
2021/04/09 06:55:51;;;;;;;0.63;0.23;;;15.10;82.40;;;;;;5006607;28;20064;-92
2021/04/09 06:58:20;;;;;;;0.17;0.17;;;14.80;81.20;;;;;;5002659;28;20026;-89
2021/04/09 07:00:50;;;;;;;0.05;0.03;;;15.50;80.30;;;;;;5006921;28;20057;-92
2021/04/09 07:03:16;;;;;;;0.43;0.43;;;16.30;77.90;;;;;;5000516;28;20591;-89
2021/04/09 07:05:42;;;;;;;0.33;0.33;;;15.90;77.60;;;;;;5003212;28;20050;-88
2021/04/09 07:08:08;;;;;;;0.10;0.10;;;15.80;77.90;;;;;;5003281;28;20548;-94
2021/04/09 07:10:34;;;;;;;0.17;0.17;;;16.30;74.90;;;;;;5000867;28;20783;-88
2021/04/09 07:13:04;;;;;;;0.43;0.43;;;16.70;77.60;;;;;;5001778;28;20112;-89
2021/04/09 07:15:43;;;;;;;1.08;1.02;;;18.00;73.60;;;;;;5005147;28;20033;-90
2021/04/09 07:18:12;;;;;;;0.10;0.10;;;17.30;71.10;;;;;;5014560;28;20452;-90
2021/04/09 07:20:39;;;;;;;0.10;0.10;;;16.70;74.90;;;;;;4997317;28;20067;-88
2021/04/09 07:23:07;;;;;;;0.10;0.10;;;17.30;71.40;;;;;;5003196;28;20486;-87
2021/04/09 07:25:35;;;;;;;0.15;0.15;;;17.80;71.10;;;;;;5002144;28;20033;-91
2021/04/09 07:28:20;;;;;;;0.40;0.40;;;17.00;71.50;;;;;;5015062;28;20032;-92
2021/04/09 07:30:57;;;;;;;0.00;0.00;;;18.20;70.20;;;;;;5000384;28;20034;-90
2021/04/09 07:33:27;;;;;;;0.10;0.10;;;18.10;68.30;;;;;;4994920;28;20022;-90
2021/04/09 07:35:58;;;;;;;0.00;0.00;;;18.60;68.60;;;;;;5005187;28;20022;-90
2021/04/09 07:38:31;;;;;;;0.00;0.00;;;20.40;61.30;;;;;;4998744;28;20037;-85
2021/04/09 07:41:06;;;;;;;0.10;0.10;;;18.90;65.80;;;;;;5012797;28;20113;-86
2021/04/09 07:43:33;;;;;;;0.43;0.38;;;18.70;67.20;;;;;;5017364;28;20449;-87
2021/04/09 07:46:02;;;;;;;0.03;0.03;;;17.80;69.20;;;;;;5005834;28;20022;-87
2021/04/09 07:48:30;;;;;;;0.20;0.20;;;19.80;63.90;;;;;;5016455;28;20031;-86
2021/04/09 07:50:56;;;;;;;0.10;0.10;;;19.70;61.30;;;;;;5004107;28;20033;-87
2021/04/09 07:53:31;;;;;;;4.78;1.30;;;18.60;65.30;;;;;;5017943;28;20053;-86
2021/04/09 07:56:08;;;;;;;0.10;0.10;;;18.50;63.00;;;;;;5006432;28;20073;-87
2021/04/09 07:58:34;;;;;;;0.52;0.43;;;17.70;69.10;;;;;;4995089;28;20045;-88
2021/04/09 08:01:01;;;;;;;0.10;0.10;;;20.60;61.90;;;;;;4994910;28;20106;-88
2021/04/09 08:03:31;;;;;;;;;;;20.70;59.70;;;;;;5005342;28;20445;-88
2021/04/09 08:06:04;;;;;;;0.20;0.13;;;20.40;60.30;;;;;;4996798;28;20000;-89
2021/04/09 08:08:29;;;;;;;0.00;0.00;;;21.60;58.10;;;;;;5007646;28;20531;-93
2021/04/09 08:10:55;;;;;;;0.07;0.07;;;22.90;54.90;;;;;;5011707;28;20112;-92
2021/04/09 08:13:21;;;;;;;0.00;0.00;;;19.30;59.30;;;;;;4993786;28;20042;-93
2021/04/09 08:15:48;;;;;;;0.10;0.10;;;21.20;56.60;;;;;;4992946;28;20394;-93
2021/04/09 08:18:14;;;;;;;0.10;0.10;;;19.30;61.90;;;;;;4992737;28;20026;-93
2021/04/09 08:20:43;;;;;;;0.20;0.20;;;20.10;60.00;;;;;;4992638;28;20491;-93
2021/04/09 08:23:15;;;;;;;0.35;0.32;;;21.30;57.40;;;;;;4992925;28;20035;-93
2021/04/09 08:25:43;;;;;;;0.00;0.00;;;23.90;50.00;;;;;;4992617;28;20040;-93
2021/04/09 08:28:11;;;;;;;0.10;0.10;;;21.20;56.20;;;;;;4994975;28;20364;-94
2021/04/09 08:30:38;;;;;;;0.47;0.20;;;20.40;57.50;;;;;;4996471;28;20022;-93
2021/04/09 08:33:07;;;;;;;0.00;0.00;;;19.10;58.20;;;;;;4996260;28;20019;-93
2021/04/09 08:35:33;;;;;;;0.20;0.20;;;18.90;58.60;;;;;;5017067;28;20030;-89
2021/04/09 08:38:02;;;;;;;0.15;0.15;;;18.40;58.00;;;;;;5000259;28;20569;-89
2021/04/09 08:40:29;;;;;;;0.43;0.43;;;17.90;60.10;;;;;;5005112;28;20056;-88
2021/04/09 08:42:56;;;;;;;0.47;0.08;;;16.60;62.60;;;;;;5002746;28;20018;-88
2021/04/09 08:45:24;;;;;;;0.10;0.10;;;16.90;63.00;;;;;;5000242;28;20941;-88
2021/04/09 08:47:55;;;;;;;0.00;0.00;;;16.40;65.50;;;;;;4998012;28;20041;-86
2021/04/09 08:50:21;;;;;;;0.03;0.03;;;15.60;68.20;;;;;;4995105;28;20057;-87
2021/04/09 08:52:48;;;;;;;0.20;0.20;;;15.90;67.90;;;;;;5021005;28;20113;-88
2021/04/09 08:55:15;;;;;;;0.32;0.30;;;15.90;67.00;;;;;;5001227;28;20041;-86
2021/04/09 08:57:47;;;;;;;0.00;0.00;;;15.90;68.40;;;;;;5000232;28;20113;-86
2021/04/09 09:00:23;;;;;;;0.75;0.75;;;16.20;67.30;;;;;;5002123;28;20061;-87
2021/04/09 09:02:49;;;;;;;0.95;0.80;;;16.50;66.20;;;;;;4992719;28;20022;-88
2021/04/09 09:05:16;;;;;;;0.10;0.10;;;16.40;66.50;;;;;;5011063;28;20033;-87
2021/04/09 09:07:55;;;;;;;0.30;0.30;;;17.30;63.30;;;;;;5002959;28;20022;-88
2021/04/09 09:10:30;;;;;;;0.20;0.20;;;16.80;66.00;;;;;;5018103;28;20864;-87
2021/04/09 09:13:08;;;;;;;0.00;0.00;;;16.60;66.60;;;;;;5020918;28;20018;-85
2021/04/09 09:15:46;;;;;;;0.32;0.32;;;16.00;67.50;;;;;;5008962;28;20022;-88
2021/04/09 09:18:25;;;;;;;0.30;0.30;;;16.20;66.90;;;;;;5021067;28;20022;-86
2021/04/09 09:21:19;;;;;;;0.10;0.10;;;16.10;67.50;;;;;;4995224;28;20046;-86
2021/04/09 09:23:51;;;;;;;0.20;0.20;;;16.10;67.60;;;;;;5018431;28;20030;-90
2021/04/09 09:26:37;;;;;;;0.10;0.10;;;16.00;67.50;;;;;;5014028;28;20117;-89
2021/04/09 09:29:16;;;;;;;0.40;0.40;;;16.10;68.20;;;;;;4991008;28;20089;-90
2021/04/09 09:32:00;;;;;;;0.50;0.50;;;15.80;68.00;;;;;;4992678;28;20054;-92
2021/04/09 09:34:27;;;;;;;0.00;0.00;;;15.60;70.10;;;;;;4998076;28;20014;-91
2021/04/09 09:37:05;;;;;;;0.10;0.10;;;15.90;67.70;;;;;;5019265;28;20026;-91
2021/04/09 09:39:45;;;;;;;0.13;0.13;;;15.90;68.30;;;;;;4999161;28;20498;-90
2021/04/09 09:42:22;;;;;;;0.28;0.28;;;16.10;68.60;;;;;;5005493;28;20037;-91
2021/04/09 09:44:49;;;;;;;;;;;16.00;67.90;;;;;;5019698;28;20057;-89
2021/04/09 09:47:20;;;;;;;0.13;0.13;;;15.90;68.70;;;;;;5003064;28;19913;-92
2021/04/09 09:50:19;;;;;;;0.20;0.20;;;16.30;67.60;;;;;;5003475;28;20536;-91
2021/04/09 09:53:04;;;;;;;2.42;0.52;;;16.30;69.10;;;;;;5012184;28;20437;-87
2021/04/09 09:55:35;;;;;;;0.10;0.10;;;16.40;69.40;;;;;;5002263;28;20030;-91
2021/04/09 09:58:14;;;;;;;0.10;0.10;;;16.80;69.00;;;;;;4998066;28;20113;-90
2021/04/09 10:00:56;;;;;;;0.10;0.10;;;17.90;66.70;;;;;;5017720;28;20061;-88
2021/04/09 10:03:29;;;;;;;0.03;0.03;;;18.80;61.90;;;;;;5004248;28;20489;-88
2021/04/09 10:05:58;;;;;;;0.20;0.20;;;18.00;64.40;;;;;;5002054;28;20117;-91
2021/04/09 10:08:25;;;;;;;0.20;0.10;;;18.00;64.00;;;;;;5009659;28;20032;-90
2021/04/09 10:10:52;;;;;;;0.52;0.52;;;17.70;64.20;;;;;;5018512;28;20057;-86
2021/04/09 10:13:31;;;;;;;0.10;0.10;;;17.10;65.30;;;;;;5004550;28;20026;-87
2021/04/09 10:16:14;;;;;;;0.10;0.10;;;19.40;59.30;;;;;;4999421;28;20037;-86
2021/04/09 10:18:43;;;;;;;0.20;0.20;;;19.40;60.10;;;;;;5004089;28;20022;-86
2021/04/09 10:21:22;;;;;;;0.40;0.40;;;18.50;62.30;;;;;;4999403;28;20050;-84
2021/04/09 10:24:12;;;;;;;0.00;0.00;;;18.70;62.40;;;;;;5004967;28;20030;-90
2021/04/09 10:26:49;;;;;;;0.10;0.10;;;18.90;63.30;;;;;;4994732;28;20034;-89
2021/04/09 10:29:27;;;;;;;0.00;0.00;;;18.00;62.90;;;;;;4997865;28;20030;-86
2021/04/09 10:31:58;;;;;;;0.00;0.00;;;16.70;66.60;;;;;;5018325;28;20413;-88
2021/04/09 10:34:32;;;;;;;0.10;0.10;;;15.90;69.40;;;;;;5002369;28;20777;-88
2021/04/09 10:37:00;;;;;;;0.10;0.10;;;15.90;69.00;;;;;;4997419;28;20449;-87
2021/04/09 10:39:27;;;;;;;0.17;0.17;;;15.30;71.40;;;;;;4996655;28;20133;-87
2021/04/09 10:41:57;;;;;;;2.35;0.98;;;15.10;72.20;;;;;;5003863;28;20434;-88
2021/04/09 10:44:24;;;;;;;0.10;0.10;;;14.80;75.60;;;;;;4990681;28;20030;-88
2021/04/09 10:46:59;;;;;;;0.00;0.00;;;14.40;76.10;;;;;;5004827;28;20113;-88
2021/04/09 10:49:37;;;;;;;0.10;0.10;;;13.60;99.90;;;;;;5001956;28;20485;-88
2021/04/09 10:52:10;;;;;;;0.15;0.15;;;13.30;99.90;;;;;;5003380;28;20045;-89
2021/04/09 10:54:39;;;;;;;0.20;0.20;;;13.00;99.90;;;;;;5003413;28;20030;-87
2021/04/09 10:57:10;;;;;;;0.10;0.10;;;13.20;99.90;;;;;;5006481;28;20026;-87
2021/04/09 10:59:38;;;;;;;0.00;0.00;;;13.60;91.80;;;;;;5020643;28;20076;-88
2021/04/09 11:02:08;;;;;;;0.05;0.05;;;13.60;99.90;;;;;;5024447;28;20125;-89
2021/04/09 11:04:35;;;;;;;0.05;0.05;;;13.50;96.50;;;;;;5000185;28;20142;-88
2021/04/09 11:07:03;;;;;;;0.38;0.38;;;12.80;1.00;;;;;;5007120;28;20042;-88
2021/04/09 11:09:44;;;;;;;2.95;0.22;;;12.90;99.90;;;;;;5021938;28;20092;-89
2021/04/09 11:12:25;;;;;;;0.25;0.25;;;13.10;99.90;;;;;;5005548;28;20124;-88
2021/04/09 11:14:52;;;;;;;0.10;0.10;;;13.30;99.90;;;;;;5007976;28;20035;-89
2021/04/09 11:17:28;;;;;;;0.30;0.30;;;13.20;99.90;;;;;;5006493;28;20030;-89
2021/04/09 11:19:56;;;;;;;0.05;0.05;;;12.90;1.00;;;;;;5021886;28;20509;-88
2021/04/09 11:22:28;;;;;;;0.80;0.63;;;13.50;99.90;;;;;;5006810;28;20041;-88
2021/04/09 11:25:06;;;;;;;0.20;0.20;;;13.80;99.90;;;;;;5004727;28;20033;-89
2021/04/09 11:27:34;;;;;;;0.03;0.03;;;13.70;99.90;;;;;;5007500;28;20033;-90
2021/04/09 11:30:19;;;;;;;0.00;0.00;;;13.50;99.90;;;;;;5008960;28;20087;-90
2021/04/09 11:32:53;;;;;;;0.15;0.15;;;13.60;99.90;;;;;;5007900;28;20056;-89
2021/04/09 11:35:20;;;;;;;2.10;0.50;;;13.00;99.90;;;;;;5008679;28;20021;-89
2021/04/09 11:37:54;;;;;;;0.05;0.05;;;13.10;99.90;;;;;;5007535;28;20081;-89
2021/04/09 11:40:41;;;;;;;0.10;0.10;;;13.00;97.90;;;;;;5009200;28;20076;-90
2021/04/09 11:43:08;;;;;;;0.10;0.10;;;13.20;99.90;;;;;;5022221;28;20034;-90
2021/04/09 11:45:50;;;;;;;0.00;0.00;;;13.90;99.90;;;;;;5007437;28;20033;-89
2021/04/09 11:48:31;;;;;;;0.00;0.00;;;14.60;99.90;;;;;;5006111;28;20030;-89
2021/04/09 11:51:17;;;;;;;0.10;0.10;;;14.60;99.90;;;;;;5004287;28;20096;-89
2021/04/09 11:53:59;;;;;;;0.15;0.15;;;15.10;99.90;;;;;;5003999;28;20034;-88
2021/04/09 11:56:45;;;;;;;0.88;0.88;;;14.70;1.00;;;;;;5021558;28;20421;-89
2021/04/09 11:59:15;;;;;;;0.20;0.20;;;14.80;97.70;;;;;;5005510;28;20036;-89
2021/04/09 12:01:42;;;;;;;0.00;0.00;;;15.10;99.90;;;;;;5004457;28;20026;-88
2021/04/09 12:04:35;;;;;;;0.95;0.95;;;16.00;99.60;;;;;;5008262;28;20121;-89
2021/04/09 12:07:02;;;;;;;0.10;0.10;;;15.70;96.20;;;;;;5009379;28;20034;-89
2021/04/09 12:09:29;;;;;;;0.10;0.10;;;15.30;99.40;;;;;;5022861;28;20549;-90
2021/04/09 12:11:55;;;;;;;0.10;0.10;;;15.00;98.90;;;;;;5009569;28;20551;-90
2021/04/09 12:14:37;;;;;;;0.10;0.10;;;14.40;99.40;;;;;;5011733;28;20037;-89
2021/04/09 12:17:05;;;;;;;2.25;0.77;;;14.50;98.10;;;;;;5005062;28;20020;-89
2021/04/09 12:19:31;;;;;;;0.55;0.55;;;14.50;99.90;;;;;;5003137;28;20042;-88
2021/04/09 12:21:57;;;;;;;0.20;0.20;;;14.10;99.90;;;;;;5007939;28;20091;-89
2021/04/09 12:24:23;;;;;;;0.20;0.20;;;13.80;50.30;;;;;;5007474;28;20034;-89
2021/04/09 12:26:49;;;;;;;0.10;0.10;;;13.30;99.90;;;;;;5004648;28;20014;-89
2021/04/09 12:29:16;;;;;;;0.10;0.10;;;13.80;99.90;;;;;;5006498;28;20034;-89
2021/04/09 12:31:46;;;;;;;0.03;0.03;;;14.40;99.90;;;;;;5006079;28;20185;-90
2021/04/09 12:34:13;;;;;;;0.17;0.08;;;14.70;99.90;;;;;;5006214;28;20091;-90
2021/04/09 12:36:43;;;;;;;3.83;0.90;;;14.10;99.90;;;;;;4999549;28;20930;-89
2021/04/09 12:39:10;;;;;;;0.45;0.40;;;13.80;99.90;;;;;;5006511;28;20025;-89
2021/04/09 12:41:37;;;;;;;0.10;0.10;;;14.00;99.90;;;;;;4999869;28;20383;-88
2021/04/09 12:44:05;;;;;;;0.20;0.13;;;13.90;99.90;;;;;;4992491;28;20201;-89
2021/04/09 12:46:36;;;;;;;0.10;0.10;;;13.60;99.90;;;;;;4996982;28;20038;-89
2021/04/09 12:49:04;;;;;;;0.17;0.17;;;13.50;99.90;;;;;;5001494;28;20030;-89
2021/04/09 12:51:33;;;;;;;0.30;0.30;;;13.60;99.90;;;;;;5007361;28;20025;-90
2021/04/09 12:54:03;;;;;;;0.10;0.10;;;13.40;99.90;;;;;;5006119;28;20058;-89
2021/04/09 12:56:37;;;;;;;0.15;0.15;;;12.60;99.90;;;;;;5006671;28;20041;-89
2021/04/09 12:59:04;;;;;;;0.20;0.20;;;12.10;91.30;;;;;;4982625;28;20026;-89
2021/04/09 13:01:35;;;;;;;0.00;0.00;;;12.30;60.60;;;;;;5003113;28;20120;-89
2021/04/09 13:04:02;;;;;;;0.00;0.00;;;12.50;99.90;;;;;;4999557;28;20053;-89
2021/04/09 13:06:28;;;;;;;0.05;0.05;;;12.50;99.90;;;;;;5000692;28;20034;-88
2021/04/09 13:09:03;;;;;;;0.23;0.23;;;11.90;99.90;;;;;;4999496;28;20034;-89
2021/04/09 13:11:29;;;;;;;0.13;0.13;;;11.50;99.90;;;;;;5004899;28;20057;-89
2021/04/09 13:13:56;;;;;;;0.45;0.45;;;11.60;99.90;;;;;;5009266;28;20490;-89
2021/04/09 13:16:23;;;;;;;0.20;0.20;;;12.20;84.40;;;;;;5004981;28;20033;-89